Date,TemperatureHighF,TemperatureAvgF,TemperatureLowF,DewpointHighF,DewpointAvgF,DewpointLowF,HumidityHigh,HumidityAvg,HumidityLow,PressureMaxIn,PressureMinIn,WindSpeedMaxMPH,WindSpeedAvgMPH,GustSpeedMaxMPH,PrecipitationSumIn
2013-3-1,35.0,26.1,20.9,26.3,22.5,19.0,95,86,68,29.95,29.86,7,1,19,0.00
2013-3-2,32.7,24.5,16.7,24.9,20.7,13.5,94,85,65,29.90,29.84,8,1,20,0.06
2013-3-3,33.9,20.4,13.2,18.3,12.8,8.9,90,74,44,29.99,29.88,10,2,23,0.00
2013-3-4,47.8,30.7,15.7,24.5,14.6,6.3,74,54,23,30.18,29.99,6,2,19,0.00
2013-3-5,44.4,38.2,24.3,44.0,35.1,21.0,97,89,63,30.10,29.59,7,1,26,0.79
2013-3-6,27.1,21.7,16.3,22.9,18.9,14.0,95,89,82,30.15,29.56,22,4,38,0.00
2013-3-7,51.4,34.2,20.7,32.2,22.1,13.2,94,65,27,30.27,30.14,4,0,12,0.01
2013-3-8,54.1,39.3,29.6,28.8,17.0,6.0,68,41,25,30.25,30.17,3,0,11,0.00
2013-3-9,53.4,42.4,35.5,31.5,25.1,5.1,68,51,26,30.25,30.19,3,0,8,0.00
2013-3-10,53.4,43.9,37.0,33.9,30.3,25.7,73,59,42,30.22,30.12,4,0,11,0.00
2013-3-11,46.5,43.0,40.6,46.0,41.6,33.5,98,95,70,30.12,29.79,6,2,24,1.64
2013-3-12,52.6,43.4,31.5,46.5,34.2,20.2,98,74,32,29.93,29.71,5,2,19,0.28
2013-3-13,38.2,29.8,19.9,25.0,19.9,13.6,79,67,45,30.10,29.92,8,2,27,0.00
2013-3-14,43.8,28.2,16.0,20.1,12.3,6.1,86,55,27,30.30,30.09,6,1,19,0.00
2013-3-15,59.5,43.8,27.9,39.8,31.1,12.4,88,63,37,30.20,29.94,14,2,21,0.00
2013-3-16,67.3,54.2,46.4,45.3,41.1,37.5,73,62,41,29.94,29.75,8,2,16,0.00
2013-3-17,62.2,52.7,47.6,47.0,43.4,40.0,87,71,46,29.89,29.79,8,1,12,0.00
2013-3-18,47.5,41.7,38.3,44.3,40.6,37.0,100,96,87,29.90,29.79,8,1,22,0.44
2013-3-19,50.8,41.1,32.0,41.0,26.2,12.4,96,61,29,30.00,29.80,9,2,18,0.00
2013-3-20,47.5,34.5,25.7,25.0,10.8,1.6,91,39,22,30.05,29.81,4,1,15,0.00
2013-3-21,32.8,23.2,14.4,23.6,8.9,1.0,92,55,36,29.95,29.66,11,3,26,0.01
2013-3-22,40.7,29.2,18.8,28.5,15.9,6.0,80,59,29,30.06,29.95,4,0,11,0.00
2013-3-23,53.0,41.1,33.3,47.0,38.6,28.7,100,91,78,30.04,29.82,7,0,8,0.09
2013-3-24,40.3,36.7,32.1,39.4,35.8,31.0,97,96,94,29.86,29.46,4,0,8,1.10
2013-3-25,32.3,23.7,18.9,31.5,20.7,16.6,97,88,75,29.90,29.47,14,2,22,0.01
2013-3-26,29.2,22.3,17.7,22.4,18.5,15.9,93,85,70,30.22,29.88,8,3,25,0.00
2013-3-27,42.8,28.4,18.2,20.5,17.5,14.0,89,67,33,30.30,30.18,11,2,20,0.01
2013-3-28,46.2,32.6,22.4,19.3,15.5,9.9,78,53,23,30.30,30.20,8,1,21,0.00
2013-3-29,47.5,35.8,29.2,34.0,23.6,9.0,96,64,32,30.31,30.21,5,0,12,0.04
2013-3-30,51.9,42.7,34.7,40.6,36.7,33.4,96,81,58,30.21,30.03,4,0,12,0.09
2013-3-31,55.5,47.3,42.0,48.3,44.7,39.7,97,91,72,30.03,29.80,5,1,12,0.47